sensor_id;sensor_type;location;lat;lon;timestamp;pressure;altitude;pressure_sealevel;temperature;humidity
74422;BME280;62856;51.446;8.360;2022-09-25T00:00:31;97691.63;;;11.12;100.00
74422;BME280;62856;51.446;8.360;2022-09-25T00:02:57;97691.13;;;11.10;100.00
74422;BME280;62856;51.446;8.360;2022-09-25T00:05:22;97697.53;;;11.14;100.00
74422;BME280;62856;51.446;8.360;2022-09-25T00:07:48;97693.31;;;11.08;100.00
74422;BME280;62856;51.446;8.360;2022-09-25T00:10:13;97698.81;;;11.03;100.00
74422;BME280;62856;51.446;8.360;2022-09-25T00:12:38;97695.91;;;11.00;100.00
74422;BME280;62856;51.446;8.360;2022-09-25T00:15:07;97706.44;;;10.96;100.00
74422;BME280;62856;51.446;8.360;2022-09-25T00:17:33;97709.13;;;10.96;100.00
74422;BME280;62856;51.446;8.360;2022-09-25T00:19:59;97706.63;;;10.86;100.00
74422;BME280;62856;51.446;8.360;2022-09-25T00:22:27;97706.84;;;10.90;100.00
74422;BME280;62856;51.446;8.360;2022-09-25T00:24:54;97698.31;;;10.83;100.00
74422;BME280;62856;51.446;8.360;2022-09-25T00:27:19;97697.41;;;10.87;100.00
74422;BME280;62856;51.446;8.360;2022-09-25T00:29:45;97695.84;;;10.86;100.00
74422;BME280;62856;51.446;8.360;2022-09-25T00:32:12;97695.44;;;10.93;100.00
74422;BME280;62856;51.446;8.360;2022-09-25T00:34:37;97690.34;;;10.91;100.00
74422;BME280;62856;51.446;8.360;2022-09-25T00:37:03;97695.66;;;10.96;100.00
74422;BME280;62856;51.446;8.360;2022-09-25T00:39:30;97691.66;;;10.94;100.00
74422;BME280;62856;51.446;8.360;2022-09-25T00:41:55;97694.66;;;10.92;100.00
74422;BME280;62856;51.446;8.360;2022-09-25T00:44:50;97699.97;;;10.97;100.00
74422;BME280;62856;51.446;8.360;2022-09-25T00:47:21;97703.75;;;10.96;100.00
74422;BME280;62856;51.446;8.360;2022-09-25T00:49:47;97695.44;;;10.93;100.00
74422;BME280;62856;51.446;8.360;2022-09-25T00:52:14;97699.25;;;10.92;100.00
74422;BME280;62856;51.446;8.360;2022-09-25T00:55:01;97700.84;;;10.93;100.00
74422;BME280;62856;51.446;8.360;2022-09-25T00:57:30;97696.44;;;10.83;100.00
74422;BME280;62856;51.446;8.360;2022-09-25T01:00:04;97703.13;;;10.86;100.00
74422;BME280;62856;51.446;8.360;2022-09-25T01:02:40;97694.50;;;10.84;100.00
74422;BME280;62856;51.446;8.360;2022-09-25T01:05:16;97702.81;;;10.87;100.00
74422;BME280;62856;51.446;8.360;2022-09-25T01:07:45;97700.22;;;10.82;100.00
74422;BME280;62856;51.446;8.360;2022-09-25T01:10:12;97702.38;;;10.80;100.00
74422;BME280;62856;51.446;8.360;2022-09-25T01:12:41;97699.19;;;10.78;100.00
74422;BME280;62856;51.446;8.360;2022-09-25T01:15:09;97710.78;;;10.79;100.00
74422;BME280;62856;51.446;8.360;2022-09-25T01:17:58;97697.69;;;10.72;100.00
74422;BME280;62856;51.446;8.360;2022-09-25T01:20:57;97697.38;;;10.74;100.00
74422;BME280;62856;51.446;8.360;2022-09-25T01:27:02;97702.34;;;10.67;100.00
74422;BME280;62856;51.446;8.360;2022-09-25T01:29:46;97695.56;;;10.69;100.00
74422;BME280;62856;51.446;8.360;2022-09-25T01:32:26;97700.59;;;10.76;100.00
74422;BME280;62856;51.446;8.360;2022-09-25T01:43:35;97696.56;;;10.73;100.00
74422;BME280;62856;51.446;8.360;2022-09-25T01:46:11;97695.50;;;10.74;100.00
74422;BME280;62856;51.446;8.360;2022-09-25T01:48:39;97698.75;;;10.71;100.00
74422;BME280;62856;51.446;8.360;2022-09-25T01:51:26;97703.06;;;10.72;100.00
74422;BME280;62856;51.446;8.360;2022-09-25T01:53:57;97701.41;;;10.76;100.00
74422;BME280;62856;51.446;8.360;2022-09-25T01:56:28;97696.00;;;10.76;100.00
74422;BME280;62856;51.446;8.360;2022-09-25T01:59:09;97699.69;;;10.80;100.00
74422;BME280;62856;51.446;8.360;2022-09-25T02:01:40;97694.56;;;10.65;100.00
74422;BME280;62856;51.446;8.360;2022-09-25T02:04:12;97704.16;;;10.71;100.00
74422;BME280;62856;51.446;8.360;2022-09-25T02:06:40;97702.06;;;10.68;100.00
74422;BME280;62856;51.446;8.360;2022-09-25T02:09:12;97702.34;;;10.67;100.00
74422;BME280;62856;51.446;8.360;2022-09-25T02:11:43;97697.25;;;10.65;100.00
74422;BME280;62856;51.446;8.360;2022-09-25T02:14:25;97698.84;;;10.66;100.00
74422;BME280;62856;51.446;8.360;2022-09-25T02:16:53;97700.50;;;10.62;100.00
74422;BME280;62856;51.446;8.360;2022-09-25T02:19:20;97699.94;;;10.65;100.00
74422;BME280;62856;51.446;8.360;2022-09-25T02:22:09;97706.78;;;10.58;100.00
74422;BME280;62856;51.446;8.360;2022-09-25T02:27:12;97693.53;;;10.61;100.00
74422;BME280;62856;51.446;8.360;2022-09-25T02:29:39;97695.13;;;10.62;100.00
74422;BME280;62856;51.446;8.360;2022-09-25T02:32:10;97694.59;;;10.60;100.00
74422;BME280;62856;51.446;8.360;2022-09-25T02:34:36;97698.50;;;10.54;100.00
74422;BME280;62856;51.446;8.360;2022-09-25T02:37:02;97686.59;;;10.55;100.00
74422;BME280;62856;51.446;8.360;2022-09-25T02:39:29;97704.88;;;10.58;100.00
74422;BME280;62856;51.446;8.360;2022-09-25T02:42:17;97700.69;;;10.52;100.00
74422;BME280;62856;51.446;8.360;2022-09-25T02:47:34;97700.88;;;10.56;100.00
74422;BME280;62856;51.446;8.360;2022-09-25T02:53:40;97697.31;;;10.60;100.00
74422;BME280;62856;51.446;8.360;2022-09-25T02:56:20;97704.31;;;10.61;100.00
74422;BME280;62856;51.446;8.360;2022-09-25T02:58:53;97696.75;;;10.63;100.00
74422;BME280;62856;51.446;8.360;2022-09-25T03:01:22;97693.03;;;10.59;100.00
74422;BME280;62856;51.446;8.360;2022-09-25T03:03:50;97689.81;;;10.57;100.00
74422;BME280;62856;51.446;8.360;2022-09-25T03:06:17;97695.13;;;10.62;100.00
74422;BME280;62856;51.446;8.360;2022-09-25T03:08:44;97693.88;;;10.55;100.00
74422;BME280;62856;51.446;8.360;2022-09-25T03:11:16;97692.50;;;10.57;100.00
74422;BME280;62856;51.446;8.360;2022-09-25T03:13:44;97696.22;;;10.61;100.00
74422;BME280;62856;51.446;8.360;2022-09-25T03:18:54;97695.19;;;10.57;100.00
74422;BME280;62856;51.446;8.360;2022-09-25T03:21:20;97696.88;;;10.53;100.00
74422;BME280;62856;51.446;8.360;2022-09-25T03:23:45;97695.84;;;10.49;100.00
74422;BME280;62856;51.446;8.360;2022-09-25T03:26:10;97700.16;;;10.50;100.00
74422;BME280;62856;51.446;8.360;2022-09-25T03:28:35;97700.38;;;10.54;100.00
74422;BME280;62856;51.446;8.360;2022-09-25T03:31:06;97694.84;;;10.45;100.00
74422;BME280;62856;51.446;8.360;2022-09-25T03:33:37;97699.94;;;10.47;100.00
74422;BME280;62856;51.446;8.360;2022-09-25T03:36:11;97693.22;;;10.44;100.00
74422;BME280;62856;51.446;8.360;2022-09-25T03:38:38;97691.56;;;10.48;100.00
74422;BME280;62856;51.446;8.360;2022-09-25T03:41:06;97696.94;;;10.48;100.00
74422;BME280;62856;51.446;8.360;2022-09-25T03:43:33;97690.47;;;10.49;100.00
74422;BME280;62856;51.446;8.360;2022-09-25T03:46:03;97685.88;;;10.50;100.00
74422;BME280;62856;51.446;8.360;2022-09-25T03:48:29;97692.41;;;10.44;100.00
74422;BME280;62856;51.446;8.360;2022-09-25T03:50:54;97689.03;;;10.38;100.00
74422;BME280;62856;51.446;8.360;2022-09-25T03:53:20;97693.44;;;10.48;100.00
74422;BME280;62856;51.446;8.360;2022-09-25T03:55:46;97693.53;;;10.43;100.00
74422;BME280;62856;51.446;8.360;2022-09-25T03:58:14;97691.72;;;10.38;100.00
74422;BME280;62856;51.446;8.360;2022-09-25T04:00:40;97699.56;;;10.35;100.00
74422;BME280;62856;51.446;8.360;2022-09-25T04:03:05;97694.97;;;10.35;100.00
74422;BME280;62856;51.446;8.360;2022-09-25T04:05:30;97689.16;;;10.28;100.00
74422;BME280;62856;51.446;8.360;2022-09-25T04:07:56;97694.53;;;10.28;100.00
74422;BME280;62856;51.446;8.360;2022-09-25T04:10:22;97680.78;;;10.29;100.00
74422;BME280;62856;51.446;8.360;2022-09-25T04:12:47;97678.38;;;10.28;100.00
74422;BME280;62856;51.446;8.360;2022-09-25T04:15:19;97688.56;;;10.31;100.00
74422;BME280;62856;51.446;8.360;2022-09-25T04:17:47;97689.06;;;10.33;100.00
74422;BME280;62856;51.446;8.360;2022-09-25T04:20:13;97685.13;;;10.25;100.00
74422;BME280;62856;51.446;8.360;2022-09-25T04:22:38;97686.25;;;10.24;100.00
74422;BME280;62856;51.446;8.360;2022-09-25T04:25:04;97690.25;;;10.27;100.00
74422;BME280;62856;51.446;8.360;2022-09-25T04:27:29;97689.16;;;10.28;100.00
74422;BME280;62856;51.446;8.360;2022-09-25T04:29:55;97677.13;;;10.20;100.00
74422;BME280;62856;51.446;8.360;2022-09-25T04:32:21;97682.22;;;10.22;100.00
74422;BME280;62856;51.446;8.360;2022-09-25T04:35:05;97676.31;;;10.20;100.00
74422;BME280;62856;51.446;8.360;2022-09-25T04:37:30;97679.00;;;10.20;100.00
74422;BME280;62856;51.446;8.360;2022-09-25T04:39:56;97673.47;;;10.11;100.00
74422;BME280;62856;51.446;8.360;2022-09-25T04:42:22;97684.69;;;10.18;100.00
74422;BME280;62856;51.446;8.360;2022-09-25T04:44:53;97679.91;;;10.15;100.00
74422;BME280;62856;51.446;8.360;2022-09-25T04:47:23;97677.13;;;10.20;100.00
74422;BME280;62856;51.446;8.360;2022-09-25T04:49:49;97678.00;;;10.16;100.00
74422;BME280;62856;51.446;8.360;2022-09-25T04:52:15;97672.91;;;10.14;100.00
74422;BME280;62856;51.446;8.360;2022-09-25T04:54:42;97672.66;;;10.11;100.00
74422;BME280;62856;51.446;8.360;2022-09-25T04:57:08;97682.38;;;10.12;100.00
74422;BME280;62856;51.446;8.360;2022-09-25T04:59:34;97680.25;;;10.09;100.00
74422;BME280;62856;51.446;8.360;2022-09-25T05:01:59;97681.00;;;10.14;100.00
74422;BME280;62856;51.446;8.360;2022-09-25T05:04:25;97672.50;;;10.02;100.00
74422;BME280;62856;51.446;8.360;2022-09-25T05:06:50;97679.72;;;10.07;100.00
74422;BME280;62856;51.446;8.360;2022-09-25T05:09:16;97684.81;;;10.08;100.00
74422;BME280;62856;51.446;8.360;2022-09-25T05:11:41;97682.66;;;10.10;100.00
74422;BME280;62856;51.446;8.360;2022-09-25T05:14:06;97682.41;;;10.07;100.00
74422;BME280;62856;51.446;8.360;2022-09-25T05:16:33;97688.28;;;10.14;100.00
74422;BME280;62856;51.446;8.360;2022-09-25T05:18:58;97681.25;;;10.13;100.00
74422;BME280;62856;51.446;8.360;2022-09-25T05:21:23;97685.06;;;10.12;100.00
74422;BME280;62856;51.446;8.360;2022-09-25T05:23:49;97679.97;;;10.05;100.00
74422;BME280;62856;51.446;8.360;2022-09-25T05:26:15;97676.22;;;10.06;100.00
74422;BME280;62856;51.446;8.360;2022-09-25T05:28:40;97687.78;;;10.07;100.00
74422;BME280;62856;51.446;8.360;2022-09-25T05:31:05;97686.19;;;10.06;100.00
74422;BME280;62856;51.446;8.360;2022-09-25T05:33:32;97685.38;;;10.05;100.00
74422;BME280;62856;51.446;8.360;2022-09-25T05:36:02;97681.31;;;10.08;100.00
74422;BME280;62856;51.446;8.360;2022-09-25T05:38:27;97688.56;;;10.12;100.00
74422;BME280;62856;51.446;8.360;2022-09-25T05:41:08;97682.97;;;10.04;100.00
74422;BME280;62856;51.446;8.360;2022-09-25T05:43:38;97689.75;;;10.01;100.00
74422;BME280;62856;51.446;8.360;2022-09-25T05:46:07;97693.72;;;10.09;100.00
74422;BME280;62856;51.446;8.360;2022-09-25T05:48:33;97687.47;;;10.13;100.00
74422;BME280;62856;51.446;8.360;2022-09-25T05:50:58;97680.88;;;10.01;100.00
74422;BME280;62856;51.446;8.360;2022-09-25T05:53:24;97688.66;;;10.02;100.00
74422;BME280;62856;51.446;8.360;2022-09-25T05:55:54;97682.44;;;10.02;100.00
74422;BME280;62856;51.446;8.360;2022-09-25T05:58:21;97684.88;;;10.03;100.00
74422;BME280;62856;51.446;8.360;2022-09-25T06:00:47;97675.56;;;9.96;100.00
74422;BME280;62856;51.446;8.360;2022-09-25T06:03:13;97682.97;;;10.04;100.00
74422;BME280;62856;51.446;8.360;2022-09-25T06:05:39;97686.19;;;10.06;100.00
74422;BME280;62856;51.446;8.360;2022-09-25T06:08:05;97679.75;;;10.02;100.00
74422;BME280;62856;51.446;8.360;2022-09-25T06:10:30;97684.88;;;10.03;100.00
74422;BME280;62856;51.446;8.360;2022-09-25T06:12:57;97692.16;;;10.03;100.00
74422;BME280;62856;51.446;8.360;2022-09-25T06:15:24;97687.28;;;10.05;100.00
74422;BME280;62856;51.446;8.360;2022-09-25T06:17:52;97691.03;;;10.04;100.00
74422;BME280;62856;51.446;8.360;2022-09-25T06:20:17;97694.25;;;10.06;100.00
74422;BME280;62856;51.446;8.360;2022-09-25T06:22:42;97687.84;;;10.02;100.00
74422;BME280;62856;51.446;8.360;2022-09-25T06:25:08;97688.84;;;10.11;100.00
74422;BME280;62856;51.446;8.360;2022-09-25T06:27:35;97679.19;;;10.05;100.00
74422;BME280;62856;51.446;8.360;2022-09-25T06:30:01;97682.13;;;10.08;100.00
74422;BME280;62856;51.446;8.360;2022-09-25T06:32:26;97691.03;;;10.09;100.00
74422;BME280;62856;51.446;8.360;2022-09-25T06:34:52;97691.47;;;10.16;100.00
74422;BME280;62856;51.446;8.360;2022-09-25T06:37:17;97691.47;;;10.16;100.00
74422;BME280;62856;51.446;8.360;2022-09-25T06:39:42;97686.38;;;10.14;100.00
74422;BME280;62856;51.446;8.360;2022-09-25T06:42:08;97689.88;;;10.15;100.00
74422;BME280;62856;51.446;8.360;2022-09-25T06:44:33;97688.56;;;10.07;100.00
74422;BME280;62856;51.446;8.360;2022-09-25T06:46:59;97690.91;;;9.95;100.00
74422;BME280;62856;51.446;8.360;2022-09-25T06:49:25;97691.03;;;10.04;100.00
74422;BME280;62856;51.446;8.360;2022-09-25T06:52:02;97695.38;;;10.05;100.00
74422;BME280;62856;51.446;8.360;2022-09-25T06:54:29;97693.53;;;10.00;100.00
74422;BME280;62856;51.446;8.360;2022-09-25T06:56:55;97704.44;;;10.14;100.00
74422;BME280;62856;51.446;8.360;2022-09-25T06:59:20;97697.38;;;10.18;100.00
74422;BME280;62856;51.446;8.360;2022-09-25T07:01:49;97702.81;;;10.13;100.00
74422;BME280;62856;51.446;8.360;2022-09-25T07:04:14;97696.91;;;10.11;100.00
74422;BME280;62856;51.446;8.360;2022-09-25T07:06:39;97706.59;;;10.12;100.00
74422;BME280;62856;51.446;8.360;2022-09-25T07:09:05;97699.72;;;10.01;100.00
74422;BME280;62856;51.446;8.360;2022-09-25T07:11:30;97703.66;;;10.08;100.00
74422;BME280;62856;51.446;8.360;2022-09-25T07:13:59;97687.06;;;10.01;100.00
74422;BME280;62856;51.446;8.360;2022-09-25T07:16:26;97704.00;;;10.02;100.00
74422;BME280;62856;51.446;8.360;2022-09-25T07:18:53;97711.41;;;10.15;100.00
74422;BME280;62856;51.446;8.360;2022-09-25T07:21:20;97705.09;;;10.24;100.00
74422;BME280;62856;51.446;8.360;2022-09-25T07:23:47;97703.84;;;10.17;100.00
74422;BME280;62856;51.446;8.360;2022-09-25T07:26:22;97706.31;;;10.13;100.00
74422;BME280;62856;51.446;8.360;2022-09-25T07:29:12;97698.22;;;10.13;100.00
74422;BME280;62856;51.446;8.360;2022-09-25T07:31:41;97709.81;;;10.14;100.00
74422;BME280;62856;51.446;8.360;2022-09-25T07:34:07;97711.06;;;10.21;100.00
74422;BME280;62856;51.446;8.360;2022-09-25T07:36:37;97710.84;;;10.18;100.00
74422;BME280;62856;51.446;8.360;2022-09-25T07:39:03;97717.19;;;10.27;100.00
74422;BME280;62856;51.446;8.360;2022-09-25T07:42:07;97711.91;;;10.17;100.00
74422;BME280;62856;51.446;8.360;2022-09-25T07:44:41;97714.63;;;10.17;100.00
74422;BME280;62856;51.446;8.360;2022-09-25T07:47:12;97711.63;;;10.18;100.00
74422;BME280;62856;51.446;8.360;2022-09-25T07:49:39;97709.16;;;10.22;100.00
74422;BME280;62856;51.446;8.360;2022-09-25T07:52:08;97711.59;;;10.23;100.00
74422;BME280;62856;51.446;8.360;2022-09-25T07:54:33;97714.03;;;10.20;100.00
74422;BME280;62856;51.446;8.360;2022-09-25T07:57:00;97719.59;;;10.28;100.00
74422;BME280;62856;51.446;8.360;2022-09-25T07:59:43;97712.88;;;10.26;100.00
74422;BME280;62856;51.446;8.360;2022-09-25T08:02:30;97720.03;;;10.36;100.00
74422;BME280;62856;51.446;8.360;2022-09-25T08:04:56;97725.28;;;10.27;100.00
74422;BME280;62856;51.446;8.360;2022-09-25T08:07:21;97723.66;;;10.26;100.00
74422;BME280;62856;51.446;8.360;2022-09-25T08:09:55;97719.66;;;10.23;100.00
74422;BME280;62856;51.446;8.360;2022-09-25T08:15:21;97725.94;;;10.38;100.00
74422;BME280;62856;51.446;8.360;2022-09-25T08:17:46;97719.16;;;10.40;100.00
74422;BME280;62856;51.446;8.360;2022-09-25T08:20:12;97719.81;;;10.32;100.00
74422;BME280;62856;51.446;8.360;2022-09-25T08:26:37;97718.63;;;10.19;100.00
74422;BME280;62856;51.446;8.360;2022-09-25T08:29:09;97731.44;;;10.27;100.00
74422;BME280;62856;51.446;8.360;2022-09-25T08:31:34;97740.44;;;10.42;100.00
74422;BME280;62856;51.446;8.360;2022-09-25T08:34:00;97728.41;;;10.34;100.00
74422;BME280;62856;51.446;8.360;2022-09-25T08:36:52;97734.59;;;10.35;100.00
74422;BME280;62856;51.446;8.360;2022-09-25T08:42:52;97730.66;;;10.27;100.00
74422;BME280;62856;51.446;8.360;2022-09-25T08:45:23;97731.53;;;10.41;100.00
74422;BME280;62856;51.446;8.360;2022-09-25T08:48:22;97740.06;;;10.48;100.00
74422;BME280;62856;51.446;8.360;2022-09-25T08:51:10;97737.94;;;10.64;100.00
74422;BME280;62856;51.446;8.360;2022-09-25T08:53:37;97731.38;;;10.51;100.00
74422;BME280;62856;51.446;8.360;2022-09-25T08:56:04;97738.41;;;10.52;100.00
74422;BME280;62856;51.446;8.360;2022-09-25T08:58:46;97720.84;;;10.55;100.00
74422;BME280;62856;51.446;8.360;2022-09-25T09:01:19;97725.00;;;10.47;100.00
74422;BME280;62856;51.446;8.360;2022-09-25T09:04:05;97729.66;;;10.42;100.00
74422;BME280;62856;51.446;8.360;2022-09-25T09:06:45;97721.56;;;10.42;100.00
74422;BME280;62856;51.446;8.360;2022-09-25T09:09:36;97738.19;;;10.49;100.00
74422;BME280;62856;51.446;8.360;2022-09-25T09:16:09;97736.88;;;10.65;100.00
74422;BME280;62856;51.446;8.360;2022-09-25T09:19:12;97729.09;;;10.63;100.00
74422;BME280;62856;51.446;8.360;2022-09-25T09:21:48;97728.56;;;10.61;100.00
74422;BME280;62856;51.446;8.360;2022-09-25T09:56:03;97723.19;;;11.44;100.00
74422;BME280;62856;51.446;8.360;2022-09-25T09:58:51;97728.97;;;11.38;100.00
74422;BME280;62856;51.446;8.360;2022-09-25T10:01:21;97720.13;;;11.18;100.00
74422;BME280;62856;51.446;8.360;2022-09-25T10:03:50;97720.91;;;11.19;100.00
74422;BME280;62856;51.446;8.360;2022-09-25T10:06:30;97727.53;;;11.26;100.00
74422;BME280;62856;51.446;8.360;2022-09-25T10:08:58;97704.13;;;11.22;100.00
74422;BME280;62856;51.446;8.360;2022-09-25T10:11:24;97723.19;;;11.44;100.00
74422;BME280;62856;51.446;8.360;2022-09-25T10:17:17;97721.03;;;11.60;100.00
74422;BME280;62856;51.446;8.360;2022-09-25T10:26:29;97709.44;;;12.76;100.00
74422;BME280;62856;51.446;8.360;2022-09-25T10:28:57;97706.84;;;12.93;100.00
74422;BME280;62856;51.446;8.360;2022-09-25T10:31:25;97706.66;;;12.90;100.00
74422;BME280;62856;51.446;8.360;2022-09-25T10:37:19;97699.53;;;12.72;100.00
74422;BME280;62856;51.446;8.360;2022-09-25T10:42:45;97700.81;;;12.74;100.00
74422;BME280;62856;51.446;8.360;2022-09-25T10:52:00;97701.44;;;11.95;100.00
74422;BME280;62856;51.446;8.360;2022-09-25T10:55:12;97709.25;;;11.83;100.00
74422;BME280;62856;51.446;8.360;2022-09-25T10:57:43;97697.25;;;11.75;100.00
74422;BME280;62856;51.446;8.360;2022-09-25T11:00:24;97703.38;;;11.81;100.00
74422;BME280;62856;51.446;8.360;2022-09-25T11:03:03;97707.06;;;11.85;100.00
74422;BME280;62856;51.446;8.360;2022-09-25T11:05:33;97695.16;;;11.86;100.00
74422;BME280;62856;51.446;8.360;2022-09-25T11:08:33;97711.94;;;11.96;100.00
74422;BME280;62856;51.446;8.360;2022-09-25T11:11:06;97703.47;;;12.03;100.00
74422;BME280;62856;51.446;8.360;2022-09-25T11:17:39;97702.75;;;12.11;100.00
74422;BME280;62856;51.446;8.360;2022-09-25T11:22:47;97704.06;;;12.27;100.00
74422;BME280;62856;51.446;8.360;2022-09-25T11:25:19;97697.53;;;12.28;100.00
74422;BME280;62856;51.446;8.360;2022-09-25T11:30:46;97692.28;;;15.91;100.00
74422;BME280;62856;51.446;8.360;2022-09-25T11:33:26;97684.88;;;15.63;87.01
74422;BME280;62856;51.446;8.360;2022-09-25T11:35:56;97681.81;;;16.40;78.07
74422;BME280;62856;51.446;8.360;2022-09-25T11:38:46;97677.09;;;17.43;76.60
74422;BME280;62856;51.446;8.360;2022-09-25T11:46:58;97672.06;;;17.33;82.29
74422;BME280;62856;51.446;8.360;2022-09-25T11:49:28;97672.94;;;16.51;89.51
74422;BME280;62856;51.446;8.360;2022-09-25T11:55:26;97671.75;;;14.59;85.16
74422;BME280;62856;51.446;8.360;2022-09-25T11:58:22;97680.75;;;14.20;97.78
74422;BME280;62856;51.446;8.360;2022-09-25T12:01:05;97674.44;;;13.85;85.89
74422;BME280;62856;51.446;8.360;2022-09-25T12:03:49;97677.09;;;13.68;87.51
74422;BME280;62856;51.446;8.360;2022-09-25T12:09:04;97668.06;;;13.20;93.23
74422;BME280;62856;51.446;8.360;2022-09-25T12:16:47;97667.44;;;13.45;94.42
74422;BME280;62856;51.446;8.360;2022-09-25T12:22:00;97666.78;;;14.44;96.33
74422;BME280;62856;51.446;8.360;2022-09-25T12:27:11;97650.94;;;17.51;72.37
74422;BME280;62856;51.446;8.360;2022-09-25T12:38:00;97641.22;;;15.04;80.06
74422;BME280;62856;51.446;8.360;2022-09-25T12:46:05;97639.88;;;16.11;75.00
74422;BME280;62856;51.446;8.360;2022-09-25T12:48:43;97645.38;;;15.74;74.71
74422;BME280;62856;51.446;8.360;2022-09-25T12:54:10;97640.78;;;14.34;80.21
74422;BME280;62856;51.446;8.360;2022-09-25T12:59:24;97636.69;;;13.97;82.49
74422;BME280;62856;51.446;8.360;2022-09-25T13:05:15;97634.47;;;13.99;81.31
74422;BME280;62856;51.446;8.360;2022-09-25T13:08:08;97625.63;;;13.77;81.11
74422;BME280;62856;51.446;8.360;2022-09-25T13:13:11;97618.66;;;13.84;82.01
74422;BME280;62856;51.446;8.360;2022-09-25T13:15:39;97617.94;;;14.18;88.26
74422;BME280;62856;51.446;8.360;2022-09-25T13:18:14;97616.69;;;14.32;83.85
74422;BME280;62856;51.446;8.360;2022-09-25T13:20:46;97611.53;;;14.22;81.10
74422;BME280;62856;51.446;8.360;2022-09-25T13:23:24;97612.03;;;14.16;83.92
74422;BME280;62856;51.446;8.360;2022-09-25T13:25:53;97616.66;;;14.24;83.36
74422;BME280;62856;51.446;8.360;2022-09-25T13:28:50;97609.19;;;14.29;87.33
74422;BME280;62856;51.446;8.360;2022-09-25T13:31:34;97607.13;;;14.35;80.39
74422;BME280;62856;51.446;8.360;2022-09-25T13:34:11;97613.00;;;14.46;77.23
74422;BME280;62856;51.446;8.360;2022-09-25T13:36:48;97606.00;;;14.53;73.46
74422;BME280;62856;51.446;8.360;2022-09-25T13:39:29;97595.59;;;14.89;75.94
74422;BME280;62856;51.446;8.360;2022-09-25T13:42:19;97595.38;;;16.36;67.99
74422;BME280;62856;51.446;8.360;2022-09-25T13:44:50;97596.31;;;17.14;61.30
74422;BME280;62856;51.446;8.360;2022-09-25T13:50:16;97588.84;;;18.56;62.58
74422;BME280;62856;51.446;8.360;2022-09-25T14:02:51;97587.50;;;14.55;74.21
74422;BME280;62856;51.446;8.360;2022-09-25T14:05:21;97590.19;;;14.21;74.01
74422;BME280;62856;51.446;8.360;2022-09-25T14:07:56;97588.41;;;14.16;80.94
74422;BME280;62856;51.446;8.360;2022-09-25T14:10:25;97585.69;;;13.99;79.04
74422;BME280;62856;51.446;8.360;2022-09-25T14:12:50;97586.78;;;13.98;73.83
74422;BME280;62856;51.446;8.360;2022-09-25T14:15:25;97582.59;;;13.67;76.02
74422;BME280;62856;51.446;8.360;2022-09-25T14:17:54;97584.22;;;13.76;74.36
74422;BME280;62856;51.446;8.360;2022-09-25T14:20:32;97582.16;;;13.90;78.69
74422;BME280;62856;51.446;8.360;2022-09-25T14:25:45;97569.31;;;14.47;71.10
74422;BME280;62856;51.446;8.360;2022-09-25T14:28:28;97564.69;;;14.56;70.41
74422;BME280;62856;51.446;8.360;2022-09-25T14:48:02;97557.78;;;14.76;67.34
74422;BME280;62856;51.446;8.360;2022-09-25T14:50:33;97563.13;;;15.10;63.52
74422;BME280;62856;51.446;8.360;2022-09-25T14:53:03;97559.91;;;15.25;68.17
74422;BME280;62856;51.446;8.360;2022-09-25T14:55:36;97558.72;;;14.88;67.11
74422;BME280;62856;51.446;8.360;2022-09-25T14:58:06;97552.19;;;14.81;69.94
74422;BME280;62856;51.446;8.360;2022-09-25T15:00:33;97556.38;;;14.70;79.00
74422;BME280;62856;51.446;8.360;2022-09-25T15:02:59;97553.19;;;14.25;67.60
74422;BME280;62856;51.446;8.360;2022-09-25T15:05:29;97549.56;;;14.38;71.04
74422;BME280;62856;51.446;8.360;2022-09-25T15:07:57;97559.22;;;14.22;66.96
74422;BME280;62856;51.446;8.360;2022-09-25T15:13:13;97540.34;;;14.94;68.48
74422;BME280;62856;51.446;8.360;2022-09-25T15:15:44;97544.56;;;14.74;65.25
74422;BME280;62856;51.446;8.360;2022-09-25T15:18:31;97543.16;;;14.60;65.70
74422;BME280;62856;51.446;8.360;2022-09-25T15:21:00;97538.34;;;14.57;64.50
74422;BME280;62856;51.446;8.360;2022-09-25T15:23:25;97542.81;;;14.44;61.36
74422;BME280;62856;51.446;8.360;2022-09-25T15:25:54;97530.41;;;14.43;68.50
74422;BME280;62856;51.446;8.360;2022-09-25T15:28:21;97538.66;;;14.21;63.30
74422;BME280;62856;51.446;8.360;2022-09-25T15:30:54;97539.47;;;14.13;68.54
74422;BME280;62856;51.446;8.360;2022-09-25T15:33:26;97542.94;;;13.96;65.67
74422;BME280;62856;51.446;8.360;2022-09-25T15:35:58;97545.81;;;13.74;61.10
74422;BME280;62856;51.446;8.360;2022-09-25T15:38:35;97544.69;;;13.75;73.26
74422;BME280;62856;51.446;8.360;2022-09-25T15:41:01;97544.03;;;13.61;67.61
74422;BME280;62856;51.446;8.360;2022-09-25T15:43:27;97538.75;;;13.56;68.32
74422;BME280;62856;51.446;8.360;2022-09-25T15:46:28;97537.13;;;13.47;64.30
74422;BME280;62856;51.446;8.360;2022-09-25T15:48:59;97538.69;;;13.39;70.19
74422;BME280;62856;51.446;8.360;2022-09-25T15:51:29;97532.63;;;13.33;64.33
74422;BME280;62856;51.446;8.360;2022-09-25T15:54:50;97531.16;;;13.27;63.68
74422;BME280;62856;51.446;8.360;2022-09-25T15:57:15;97529.09;;;13.24;63.95
74422;BME280;62856;51.446;8.360;2022-09-25T15:59:47;97528.13;;;13.20;66.43
74422;BME280;62856;51.446;8.360;2022-09-25T16:02:42;97528.13;;;13.20;67.59
74422;BME280;62856;51.446;8.360;2022-09-25T16:05:32;97513.16;;;13.14;66.91
74422;BME280;62856;51.446;8.360;2022-09-25T16:08:14;97516.63;;;13.06;64.86
74422;BME280;62856;51.446;8.360;2022-09-25T16:10:43;97519.75;;;13.00;67.33
74422;BME280;62856;51.446;8.360;2022-09-25T16:13:20;97512.69;;;12.90;69.94
74422;BME280;62856;51.446;8.360;2022-09-25T16:15:48;97509.59;;;12.75;70.36
74422;BME280;62856;51.446;8.360;2022-09-25T16:18:26;97513.19;;;12.62;77.98
74422;BME280;62856;51.446;8.360;2022-09-25T16:21:13;97516.06;;;12.65;68.79